METAR Data
IDs: Format: Raw Decoded Include TAF

Data at: 0800 UTC 07 Dec 2021

KECP 070753Z AUTO 33003KT 10SM OVC005 17/17 A3004 RMK AO2 SLP184 T01670167 $
KECP 070713Z AUTO 32007KT 10SM BKN004 17/17 A3003 RMK AO2 T01670167 $
KECP 070704Z AUTO 33007KT 10SM SCT004 16/16 A3002 RMK AO2 T01610156 $
KECP 070653Z AUTO 00000KT 10SM CLR 17/16 A3002 RMK AO2 SLP177 T01670161 $
KECP 070553Z AUTO 10007KT 10SM FEW003 17/17 A3002 RMK AO2 SLP176 60006 T01720167 10211 20167 58017 $
KECP 070503Z AUTO 11003KT 10SM SCT006 17/17 A3005 RMK AO2 T01720172 $
KECP 070453Z AUTO 00000KT 10SM BKN006 17/17 A3006 RMK AO2 SLP190 T01720172 402330128 TSNO $
KECP 070430Z AUTO 00000KT 10SM BKN006 OVC065 17/17 A3006 RMK AO2 T01720172 $
KECP 070422Z AUTO 00000KT 10SM SCT006 OVC060 18/17 A3007 RMK AO2 T01780172 $
KECP 070353Z AUTO 00000KT 10SM BKN060 BKN110 18/17 A3007 RMK AO2 SLP194 T01780172 $
KECP 070253Z 33005KT 10SM OVC075 18/18 A3007 RMK AO2 RAE36 SLP194 P0000 60006 T01830178 53003 $
KECP 070153Z 30009KT 10SM -RA OVC080 19/18 A3007 RMK AO2 SLP193 P0000 T01890178 $
KECP 070053Z 24009KT 10SM -RA FEW010 BKN049 OVC080 19/18 A3006 RMK AO2 RAB33 SLP191 P0006 T01890183
KECP 062353Z 27004KT 10SM FEW005 BKN025 OVC032 21/20 A3004 RMK AO2 SLP185 60001 T02060200 10233 20206 51006
KECP 062348Z 15007KT 10SM FEW015 BKN025 OVC040 21/20 A3004 RMK AO2
KECP 062318Z 19003KT 10SM FEW010 FEW018 SCT025 21/21 A3004 RMK AO2 T02060206
KECP 062253Z 17005KT 10SM BKN015 BKN022 OVC029 21/21 A3003 RMK AO2 RAB14E38 SLP180 P0001 T02060206
KECP 062153Z 19006KT 10SM SCT010 BKN016 OVC029 22/20 A3002 RMK AO2 SLP179 T02170200
KECP 062150Z 18006KT 10SM SCT010 BKN016 OVC029 22/20 A3002 RMK AO2
KECP 062143Z 18007KT 10SM FEW010 BKN014 OVC031 22/20 A3002 RMK AO2 T02170200
KECP 062053Z 17006KT 10SM SCT014 BKN028 OVC044 22/20 A3001 RMK AO2 RAB34E48 SLP174 P0000 60000 T02170200 56012
KECP 062035Z 16008KT 10SM -RA BKN014 BKN025 BKN035 22/19 A3002 RMK AO2 RAB34 P0000 T02220194
KECP 061953Z 18005KT 10SM BKN017 BKN025 OVC031 22/19 A3003 RMK AO2 SLP180 T02220194
KECP 061856Z 18006KT 10SM SCT020 BKN035 23/19 A3003 RMK AO2 T02280194
KECP 061854Z 18007KT 10SM FEW035 FEW047 SCT055 23/19 A3003 RMK AO2 T02280194
KECP 061853Z 17007KT 10SM BKN025 23/19 A3003 RMK AO2 SLP180 T02280194
KECP 061753Z 16010KT 10SM BKN025 23/19 A3005 RMK AO2 SLP186 T02330189 10233 20128 58018
KECP 061653Z 17008KT 10SM BKN020 23/19 A3007 RMK AO2 SLP195 T02280189
KECP 061553Z 15006KT 10SM BKN022 OVC095 21/18 A3010 RMK AO2 SLP203 T02110178
KECP 061548Z 15006KT 10SM BKN024 OVC095 21/18 A3010 RMK AO2
KECP 061453Z 15008KT 10SM SCT090 19/17 A3008 RMK AO2 SLP199 T01940172 50000
KECP 061353Z 10004KT 10SM BKN090 16/16 A3009 RMK AO2 SLP199 T01610161
KECP 061253Z 11005KT 6SM BR CLR 14/14 A3008 RMK AO2 SLP199 T01440144
KECP 061214Z 00000KT 6SM R16/1400V1800FT BR CLR 13/13 A3008 RMK AO2 T01330133
KECP 061153Z 00000KT 10SM R16/2200VP6000FT CLR 14/14 A3008 RMK AO2 SLP198 T01390139 10156 20133 53002
KECP 061102Z AUTO 00000KT 10SM R16/2800V4000FT FEW002 14/14 A3008 RMK AO2 T01440144 $
KECP 061053Z AUTO 00000KT 10SM R16/2800V6000FT CLR 14/14 A3008 RMK AO2 SLP197 T01390139 $
KECP 060953Z AUTO 11004KT 10SM R16/5500VP6000FT CLR 14/14 A3007 RMK AO2 SLP194 T01440144 $
KECP 060853Z AUTO 11003KT 10SM CLR 15/15 A3008 RMK AO2 SLP197 T01500150 58004
KECP 060829Z AUTO 10003KT 10SM R16/3000VP6000FT SCT002 15/15 A3009 RMK AO2 T01500150
KECP 060804Z AUTO 00000KT 10SM R16/2400VP6000FT BKN002 14/14 A3009 RMK AO2 T01390139
KECP 060753Z AUTO 11003KT 10SM SCT002 BKN100 14/14 A3009 RMK AO2 SLP199 T01390139
KECP 060736Z AUTO 13003KT 10SM SCT001 OVC100 14/14 A3009 RMK AO2 T01440144
KECP 060702Z AUTO 00000KT 10SM R16/2800VP6000FT OVC001 14/14 A3009 RMK AO2 T01440144
KECP 060653Z AUTO 00000KT 10SM R16/2600VP6000FT BKN002 14/14 A3009 RMK AO2 SLP200 T01440144
KECP 060643Z AUTO 00000KT 10SM R16/2200V4000FT BKN002 14/14 A3009 RMK AO2 T01440144
KECP 060623Z AUTO 10003KT 10SM R16/2000V2800FT SCT002 15/15 A3009 RMK AO2 T01500150
KECP 060553Z AUTO 10003KT 10SM R16/2000V3500FT CLR 16/16 A3009 RMK AO2 SLP201 T01560156 10178 20156 58008
KECP 060453Z AUTO 11004KT 10SM CLR 16/16 A3011 RMK AO2 SLP207 T01610161 402220100
KECP 060353Z AUTO 12004KT 10SM CLR 17/17 A3013 RMK AO2 SLP213 T01720167
KECP 060253Z 12006KT 10SM CLR 17/17 A3011 RMK AO2 SLP209 T01720167 51004
KECP 060153Z 12005KT 10SM OVC047 18/16 A3011 RMK AO2 SLP209 T01780161
KECP 060053Z 00000KT 10SM BKN048 17/16 A3012 RMK AO2 SLP209 T01720161
KECP 052353Z 00000KT 10SM OVC048 18/16 A3010 RMK AO2 SLP205 T01780161 10222 20178 53007
KECP 052253Z 14003KT 10SM SCT048 18/16 A3009 RMK AO2 SLP200 T01830156
KECP 052153Z 14004KT 10SM BKN043 BKN050 21/14 A3008 RMK AO2 SLP198 T02060139
KECP 052053Z 13006KT 10SM BKN050 22/13 A3008 RMK AO2 SLP198 T02170133 56015